createdAt,value
2022-11-13T00:00:41.959Z,17.10
2022-11-13T00:03:09.934Z,17.40
2022-11-13T00:05:37.813Z,17.53
2022-11-13T00:08:07.214Z,17.97
2022-11-13T00:10:35.182Z,18.13
2022-11-13T00:13:03.087Z,17.53
2022-11-13T00:15:31.019Z,18.27
2022-11-13T00:18:01.600Z,18.97
2022-11-13T00:20:29.516Z,17.87
2022-11-13T00:22:57.463Z,17.77
2022-11-13T00:25:26.782Z,18.93
2022-11-13T00:27:54.655Z,19.33
2022-11-13T00:30:22.758Z,19.63
2022-11-13T00:32:50.746Z,18.17
2022-11-13T00:35:18.822Z,18.60
2022-11-13T00:37:46.901Z,18.33
2022-11-13T00:40:14.847Z,19.07
2022-11-13T00:42:44.150Z,19.23
2022-11-13T00:45:12.209Z,18.97
2022-11-13T00:47:40.103Z,18.10
2022-11-13T00:50:08.327Z,19.10
2022-11-13T00:52:36.280Z,19.63
2022-11-13T00:55:04.312Z,18.03
2022-11-13T00:57:32.229Z,17.47
2022-11-13T01:00:01.644Z,17.70
2022-11-13T01:02:29.767Z,17.30
2022-11-13T01:04:57.770Z,17.00
2022-11-13T01:07:25.711Z,18.53
2022-11-13T01:09:53.874Z,17.93
2022-11-13T01:12:21.905Z,18.43
2022-11-13T01:14:50.130Z,18.13
2022-11-13T01:17:19.672Z,17.67
2022-11-13T01:19:47.651Z,17.83
2022-11-13T01:22:15.710Z,17.77
2022-11-13T01:24:43.810Z,18.60
2022-11-13T01:27:13.355Z,17.47
2022-11-13T01:29:41.228Z,18.33
2022-11-13T01:32:09.192Z,16.87
2022-11-13T01:34:38.670Z,17.60
2022-11-13T01:37:06.670Z,17.63
2022-11-13T01:39:34.651Z,17.63
2022-11-13T01:42:02.715Z,18.23
2022-11-13T01:44:45.461Z,17.50
2022-11-13T01:47:13.392Z,17.93
2022-11-13T01:49:43.572Z,19.53
2022-11-13T01:52:12.876Z,18.17
2022-11-13T01:54:43.901Z,18.73
2022-11-13T01:57:12.099Z,18.40
2022-11-13T01:59:41.213Z,18.73
2022-11-13T02:02:09.419Z,19.30
2022-11-13T02:04:37.459Z,18.07
2022-11-13T02:07:08.420Z,18.37
2022-11-13T02:09:37.281Z,18.17
2022-11-13T02:12:07.114Z,19.77
2022-11-13T02:14:35.858Z,19.53
2022-11-13T02:17:05.708Z,20.73
2022-11-13T02:19:35.849Z,19.63
2022-11-13T02:22:08.406Z,18.97
2022-11-13T02:24:43.338Z,19.13
2022-11-13T02:27:16.120Z,19.73
2022-11-13T02:29:44.067Z,18.90
2022-11-13T02:32:11.977Z,18.53
2022-11-13T02:34:39.880Z,19.17
2022-11-13T02:37:07.868Z,18.23
2022-11-13T02:39:37.185Z,19.20
2022-11-13T02:42:05.212Z,18.47
2022-11-13T02:44:33.142Z,18.23
2022-11-13T02:47:01.037Z,18.63
2022-11-13T02:49:29.209Z,18.30
2022-11-13T02:51:57.168Z,17.77
2022-11-13T02:54:25.080Z,17.70
2022-11-13T02:56:54.427Z,18.57
2022-11-13T02:59:22.336Z,17.57
2022-11-13T03:01:50.271Z,18.33
2022-11-13T03:04:18.211Z,17.93
2022-11-13T03:06:46.176Z,17.47
2022-11-13T03:09:14.261Z,17.03
2022-11-13T03:11:42.181Z,16.20
2022-11-13T03:14:11.722Z,17.70
2022-11-13T03:16:39.735Z,16.97
2022-11-13T03:19:08.099Z,18.07
2022-11-13T03:21:36.146Z,16.40
2022-11-13T03:24:04.079Z,17.20
2022-11-13T03:26:31.993Z,17.20
2022-11-13T03:28:59.947Z,15.47
2022-11-13T03:31:29.255Z,17.03
2022-11-13T03:33:57.165Z,14.60
2022-11-13T03:36:25.357Z,15.57
2022-11-13T03:38:53.373Z,14.57
2022-11-13T03:41:22.377Z,14.27
2022-11-13T03:43:50.343Z,14.03
2022-11-13T03:46:18.226Z,14.47
2022-11-13T03:48:47.535Z,13.60
2022-11-13T03:51:15.483Z,13.07
2022-11-13T03:53:43.412Z,13.07
2022-11-13T03:56:11.326Z,12.30
2022-11-13T03:58:40.462Z,13.30
2022-11-13T04:01:08.552Z,13.03
2022-11-13T04:03:36.921Z,12.83
2022-11-13T04:06:06.428Z,13.03
2022-11-13T04:08:34.333Z,13.77
2022-11-13T04:11:07.296Z,13.33
2022-11-13T04:13:35.196Z,13.00
2022-11-13T04:16:03.120Z,12.40
2022-11-13T04:18:31.173Z,12.93
2022-11-13T04:21:00.278Z,12.37
2022-11-13T04:23:29.646Z,12.37
2022-11-13T04:25:57.531Z,13.50
2022-11-13T04:28:25.622Z,13.27
2022-11-13T04:30:54.265Z,12.47
2022-11-13T04:33:22.300Z,13.43
2022-11-13T04:35:50.269Z,13.43
2022-11-13T04:38:18.212Z,12.70
2022-11-13T04:40:50.467Z,12.47
2022-11-13T04:43:17.324Z,13.13
2022-11-13T04:45:45.275Z,12.50
2022-11-13T04:48:13.223Z,13.70
2022-11-13T04:50:41.098Z,13.10
2022-11-13T04:53:09.039Z,12.53
2022-11-13T04:55:36.925Z,12.80
2022-11-13T04:58:06.261Z,11.63
2022-11-13T05:00:34.189Z,11.80
2022-11-13T05:03:02.118Z,12.57
2022-11-13T05:05:30.040Z,12.00
2022-11-13T05:07:57.937Z,12.07
2022-11-13T05:10:25.843Z,11.83
2022-11-13T05:12:57.094Z,12.40
2022-11-13T05:15:26.744Z,12.60
2022-11-13T05:17:55.390Z,12.77
2022-11-13T05:20:23.292Z,12.50
2022-11-13T05:22:51.253Z,12.50
2022-11-13T05:25:19.130Z,12.27
2022-11-13T05:27:47.025Z,12.30
2022-11-13T05:30:14.968Z,11.83
2022-11-13T05:32:44.283Z,12.37
2022-11-13T05:35:12.198Z,11.47
2022-11-13T05:37:40.133Z,11.30
2022-11-13T05:40:08.741Z,11.97
2022-11-13T05:42:36.759Z,11.47
2022-11-13T05:45:04.916Z,10.43
2022-11-13T05:47:34.147Z,12.40
2022-11-13T05:50:03.631Z,11.13
2022-11-13T05:52:31.556Z,10.17
2022-11-13T05:54:59.483Z,11.27
2022-11-13T05:57:27.444Z,10.87
2022-11-13T05:59:55.416Z,11.33
2022-11-13T06:02:23.407Z,11.03
2022-11-13T06:04:54.086Z,10.93
2022-11-13T06:07:25.759Z,11.27
2022-11-13T06:09:53.853Z,10.60
2022-11-13T06:12:21.792Z,11.67
2022-11-13T06:14:49.816Z,10.43
2022-11-13T06:17:17.800Z,11.30
2022-11-13T06:19:45.770Z,11.40
2022-11-13T06:22:13.674Z,9.70
2022-11-13T06:24:43.058Z,10.57
2022-11-13T06:27:11.102Z,10.20
2022-11-13T06:29:38.992Z,10.23
2022-11-13T06:32:07.022Z,10.13
2022-11-13T06:34:34.992Z,10.30
2022-11-13T06:37:02.965Z,10.00
2022-11-13T06:39:30.841Z,11.20
2022-11-13T06:42:00.175Z,10.37
2022-11-13T06:44:28.114Z,10.60
2022-11-13T06:46:56.026Z,10.57
2022-11-13T06:49:23.934Z,11.27
2022-11-13T06:51:51.970Z,11.27
2022-11-13T06:54:19.910Z,10.53
2022-11-13T06:56:48.095Z,10.43
2022-11-13T06:59:17.569Z,10.50
2022-11-13T07:01:45.471Z,9.90
2022-11-13T07:04:13.994Z,10.53
2022-11-13T07:06:42.034Z,11.30
2022-11-13T07:09:10.037Z,9.63
2022-11-13T07:11:37.992Z,11.60
2022-11-13T07:14:06.543Z,11.13
2022-11-13T07:16:56.649Z,10.27
2022-11-13T07:19:23.895Z,9.67
2022-11-13T07:21:51.794Z,10.53
2022-11-13T07:24:19.688Z,11.17
2022-11-13T07:26:47.607Z,10.40
2022-11-13T07:29:15.859Z,9.43
2022-11-13T07:31:45.182Z,10.60
2022-11-13T07:34:14.877Z,10.03
2022-11-13T07:36:42.814Z,9.67
2022-11-13T07:39:10.689Z,9.47
2022-11-13T07:41:38.602Z,9.47
2022-11-13T07:44:09.091Z,9.43
2022-11-13T07:46:37.564Z,9.47
2022-11-13T07:49:06.938Z,9.00
2022-11-13T07:51:34.858Z,10.43
2022-11-13T07:54:02.782Z,10.67
2022-11-13T07:56:30.699Z,9.23
2022-11-13T07:58:58.711Z,9.23
2022-11-13T08:01:27.038Z,9.80
2022-11-13T08:03:55.075Z,10.40
2022-11-13T08:06:24.722Z,9.80
2022-11-13T08:08:52.740Z,9.57
2022-11-13T08:11:21.241Z,9.73
2022-11-13T08:13:49.183Z,9.37
2022-11-13T08:16:17.116Z,9.73
2022-11-13T08:18:45.037Z,10.37
2022-11-13T08:21:15.060Z,10.23
2022-11-13T08:23:44.616Z,9.97
2022-11-13T08:26:12.538Z,10.27
2022-11-13T08:28:40.531Z,10.00
2022-11-13T08:31:11.571Z,10.60
2022-11-13T08:33:39.488Z,11.63
2022-11-13T08:36:07.626Z,11.00
2022-11-13T08:38:35.565Z,10.13
2022-11-13T08:41:08.984Z,10.80
2022-11-13T08:43:37.357Z,11.17
2022-11-13T08:46:05.278Z,11.00
2022-11-13T08:48:33.145Z,11.03
2022-11-13T08:51:01.052Z,10.00
2022-11-13T08:53:29.015Z,10.90
2022-11-13T08:55:56.927Z,10.90
2022-11-13T08:58:26.420Z,12.10
2022-11-13T09:00:54.659Z,10.77
2022-11-13T09:03:22.640Z,11.83
2022-11-13T09:05:50.563Z,10.67
2022-11-13T09:08:18.466Z,11.17
2022-11-13T09:10:46.349Z,11.37
2022-11-13T09:13:14.293Z,11.80
2022-11-13T09:15:43.583Z,11.30
2022-11-13T09:18:11.723Z,11.87
2022-11-13T09:20:39.641Z,11.97
2022-11-13T09:23:08.345Z,12.70
2022-11-13T09:25:38.208Z,12.10
2022-11-13T09:28:06.869Z,11.00
2022-11-13T09:30:35.051Z,11.60
2022-11-13T09:33:05.088Z,11.97
2022-11-13T09:35:36.194Z,11.83
2022-11-13T09:38:11.008Z,12.63
2022-11-13T09:40:43.143Z,13.60
2022-11-13T09:43:15.684Z,12.27
2022-11-13T09:45:43.998Z,13.30
2022-11-13T09:48:21.994Z,14.20
2022-11-13T09:50:50.106Z,13.33
2022-11-13T09:53:18.189Z,13.60
2022-11-13T09:55:50.001Z,13.27
2022-11-13T09:58:20.865Z,14.23
2022-11-13T10:00:49.075Z,13.20
2022-11-13T10:03:54.039Z,13.23
2022-11-13T10:06:17.664Z,13.23
2022-11-13T10:08:51.122Z,12.70
2022-11-13T10:11:23.734Z,12.03
2022-11-13T10:13:53.808Z,11.67
2022-11-13T10:16:26.362Z,12.53
2022-11-13T10:18:57.343Z,12.10
2022-11-13T10:21:31.368Z,12.17
2022-11-13T10:24:03.202Z,12.43
2022-11-13T10:26:31.337Z,12.67
2022-11-13T10:29:02.735Z,12.00
2022-11-13T10:31:30.773Z,11.67
2022-11-13T10:34:00.587Z,13.07
2022-11-13T10:36:34.100Z,13.10
2022-11-13T10:39:03.780Z,11.80
2022-11-13T10:41:31.938Z,12.17
2022-11-13T10:43:59.994Z,12.60
2022-11-13T10:46:30.130Z,12.03
2022-11-13T10:48:59.531Z,12.70
2022-11-13T10:51:28.631Z,12.70
2022-11-13T10:53:56.788Z,13.27
2022-11-13T10:56:28.023Z,12.63
2022-11-13T10:59:05.797Z,11.90
2022-11-13T11:01:33.753Z,12.80
2022-11-13T11:04:04.428Z,11.50
2022-11-13T11:07:04.600Z,11.70
2022-11-13T11:09:23.944Z,12.40
2022-11-13T11:12:30.213Z,12.07
2022-11-13T11:15:11.162Z,11.87
2022-11-13T11:17:42.756Z,11.40
2022-11-13T11:20:18.514Z,12.27
2022-11-13T11:22:47.684Z,12.57
2022-11-13T11:25:17.175Z,13.20
2022-11-13T11:27:47.975Z,12.40
2022-11-13T11:30:19.878Z,12.37
2022-11-13T11:32:49.920Z,11.17
2022-11-13T11:35:21.996Z,13.00
2022-11-13T11:37:54.111Z,13.27
2022-11-13T11:40:26.864Z,13.23
2022-11-13T11:42:57.947Z,13.23
2022-11-13T11:45:27.706Z,12.43
2022-11-13T11:47:55.599Z,13.27
2022-11-13T11:50:30.801Z,14.50
2022-11-13T11:53:02.169Z,13.23
2022-11-13T11:55:38.480Z,12.77
2022-11-13T11:58:11.834Z,12.93
2022-11-13T12:00:42.387Z,13.63
2022-11-13T12:03:39.085Z,13.63
2022-11-13T12:06:12.489Z,12.73
2022-11-13T12:08:42.553Z,14.07
2022-11-13T12:11:15.575Z,14.13
2022-11-13T12:13:46.635Z,13.07
2022-11-13T12:16:22.302Z,15.20
2022-11-13T12:18:56.484Z,14.43
2022-11-13T12:21:29.306Z,13.47
2022-11-13T12:24:30.206Z,14.57
2022-11-13T12:27:16.219Z,13.77
2022-11-13T12:29:52.885Z,13.60
2022-11-13T12:32:26.453Z,13.20
2022-11-13T12:34:57.393Z,13.80
2022-11-13T12:37:29.650Z,14.33
2022-11-13T12:39:58.441Z,13.93
2022-11-13T12:42:30.998Z,14.40
2022-11-13T12:45:02.445Z,14.07
2022-11-13T12:47:33.450Z,14.17
2022-11-13T12:50:02.470Z,13.80
2022-11-13T12:52:34.768Z,14.10
2022-11-13T12:55:07.852Z,14.17
2022-11-13T12:57:35.959Z,14.83
2022-11-13T13:00:21.976Z,13.13
2022-11-13T13:02:54.104Z,13.80
2022-11-13T13:05:25.310Z,13.20
2022-11-13T13:08:05.173Z,14.20
2022-11-13T13:10:35.498Z,14.13
2022-11-13T13:13:09.827Z,14.77
2022-11-13T13:15:38.527Z,14.93
2022-11-13T13:18:08.424Z,14.03
2022-11-13T13:20:37.559Z,14.83
2022-11-13T13:23:08.815Z,13.67
2022-11-13T13:25:37.455Z,15.30
2022-11-13T13:28:19.723Z,14.27
2022-11-13T13:30:51.505Z,13.40
2022-11-13T13:33:23.364Z,14.13
2022-11-13T13:35:56.144Z,13.50
2022-11-13T13:38:27.907Z,14.57
2022-11-13T13:41:04.553Z,13.03
2022-11-13T13:43:38.757Z,14.00
2022-11-13T13:46:11.462Z,14.10
2022-11-13T13:48:40.794Z,13.97
2022-11-13T13:51:16.208Z,13.50
2022-11-13T13:53:45.625Z,13.07
2022-11-13T13:56:14.881Z,13.87
2022-11-13T13:58:43.198Z,14.43
2022-11-13T14:01:19.243Z,14.73
2022-11-13T14:03:47.819Z,13.53
2022-11-13T14:06:20.983Z,14.03
2022-11-13T14:08:50.330Z,13.03
2022-11-13T14:11:19.727Z,12.90
2022-11-13T14:13:47.629Z,13.53
2022-11-13T14:16:15.659Z,13.67
2022-11-13T14:18:43.597Z,13.87
2022-11-13T14:21:13.298Z,15.10
2022-11-13T14:23:43.428Z,13.47
2022-11-13T14:26:12.951Z,14.27
2022-11-13T14:28:53.790Z,14.77
2022-11-13T14:31:26.720Z,15.50
2022-11-13T14:33:54.769Z,14.70
2022-11-13T14:36:27.292Z,15.37
2022-11-13T14:38:55.463Z,16.07
2022-11-13T14:41:25.736Z,15.13
2022-11-13T14:43:54.435Z,15.80
2022-11-13T14:46:33.144Z,14.77
2022-11-13T14:49:01.034Z,14.80
2022-11-13T14:51:30.488Z,13.93
2022-11-13T14:53:59.264Z,15.20
2022-11-13T14:56:35.589Z,14.47
2022-11-13T14:59:11.672Z,14.67
2022-11-13T15:01:42.353Z,15.80
2022-11-13T15:04:10.430Z,15.23
2022-11-13T15:06:39.341Z,14.63
2022-11-13T15:09:10.534Z,14.67
2022-11-13T15:11:40.556Z,14.93
2022-11-13T15:14:11.177Z,14.77
2022-11-13T15:16:39.360Z,14.50
2022-11-13T15:19:09.045Z,15.93
2022-11-13T15:21:37.078Z,13.80
2022-11-13T15:24:05.205Z,14.03
2022-11-13T15:26:33.147Z,13.50
2022-11-13T15:29:02.534Z,14.40
2022-11-13T15:31:31.446Z,13.07
2022-11-13T15:33:59.588Z,14.80
2022-11-13T15:36:27.549Z,14.13
2022-11-13T15:38:55.509Z,13.53
2022-11-13T15:41:24.525Z,15.40
2022-11-13T15:43:53.590Z,14.70
2022-11-13T15:46:24.126Z,13.63
2022-11-13T15:48:52.425Z,14.70
2022-11-13T15:51:21.963Z,13.07
2022-11-13T15:53:51.760Z,13.83
2022-11-13T15:56:19.954Z,13.90
2022-11-13T15:58:47.875Z,19.27
2022-11-13T16:01:16.437Z,17.10
2022-11-13T16:03:45.907Z,16.87
2022-11-13T16:06:14.661Z,15.90
2022-11-13T16:08:42.800Z,14.53
2022-11-13T16:11:14.450Z,14.37
2022-11-13T16:13:42.377Z,13.77
2022-11-13T16:16:11.123Z,13.97
2022-11-13T16:18:39.129Z,14.53
2022-11-13T16:21:10.049Z,15.17
2022-11-13T16:23:37.951Z,14.63
2022-11-13T16:26:05.984Z,17.00
2022-11-13T16:28:37.570Z,17.50
2022-11-13T16:31:21.211Z,16.13
2022-11-13T16:33:49.235Z,14.27
2022-11-13T16:36:19.338Z,14.40
2022-11-13T16:38:47.564Z,15.00
2022-11-13T16:41:16.684Z,16.87
2022-11-13T16:43:44.764Z,14.40
2022-11-13T16:46:19.113Z,14.57
2022-11-13T16:48:47.106Z,13.93
2022-11-13T16:51:16.751Z,14.23
2022-11-13T16:53:46.171Z,15.17
2022-11-13T16:56:15.381Z,15.43
2022-11-13T16:58:43.787Z,15.40
2022-11-13T17:01:18.250Z,14.07
2022-11-13T17:03:46.644Z,14.53
2022-11-13T17:06:20.505Z,14.73
2022-11-13T17:08:51.694Z,15.17
2022-11-13T17:11:20.098Z,15.47
2022-11-13T17:13:50.311Z,15.50
2022-11-13T17:16:18.239Z,15.23
2022-11-13T17:18:48.395Z,15.47
2022-11-13T17:21:16.755Z,17.17
2022-11-13T17:23:45.144Z,16.47
2022-11-13T17:26:14.514Z,16.40
2022-11-13T17:28:42.585Z,15.97
2022-11-13T17:31:12.774Z,14.80
2022-11-13T17:33:41.290Z,16.03
2022-11-13T17:36:09.944Z,16.80
2022-11-13T17:38:39.154Z,16.10
2022-11-13T17:41:08.002Z,16.47
2022-11-13T17:43:37.852Z,15.67
2022-11-13T17:46:05.943Z,15.77
2022-11-13T17:48:34.312Z,17.30
2022-11-13T17:51:03.730Z,16.30
2022-11-13T17:53:32.319Z,15.67
2022-11-13T17:56:00.912Z,16.70
2022-11-13T17:58:29.302Z,17.80
2022-11-13T18:01:06.185Z,16.70
2022-11-13T18:03:34.147Z,18.00
2022-11-13T18:06:05.111Z,17.90
2022-11-13T18:08:33.317Z,18.53
2022-11-13T18:11:01.535Z,19.33
2022-11-13T18:13:29.693Z,17.97
2022-11-13T18:16:04.345Z,17.53
2022-11-13T18:18:33.777Z,18.07
2022-11-13T18:21:13.928Z,17.83
2022-11-13T18:23:50.344Z,18.07
2022-11-13T18:26:19.058Z,19.20
2022-11-13T18:28:47.036Z,17.73
2022-11-13T18:31:16.015Z,19.50
2022-11-13T18:33:45.824Z,20.10
2022-11-13T18:36:13.725Z,18.53
2022-11-13T18:38:41.791Z,18.23
2022-11-13T18:41:11.217Z,17.73
2022-11-13T18:43:39.140Z,17.90
2022-11-13T18:46:07.931Z,18.27
2022-11-13T18:48:36.762Z,17.73
2022-11-13T18:51:07.373Z,19.60
2022-11-13T18:53:35.328Z,18.13
2022-11-13T18:56:03.824Z,18.23
2022-11-13T18:58:31.782Z,19.57
2022-11-13T19:01:08.976Z,20.47
2022-11-13T19:03:36.987Z,19.80
2022-11-13T19:06:08.035Z,18.57
2022-11-13T19:08:40.541Z,17.77
2022-11-13T19:11:10.716Z,18.57
2022-11-13T19:13:39.102Z,17.40
2022-11-13T19:16:07.521Z,18.30
2022-11-13T19:18:35.793Z,18.07
2022-11-13T19:21:08.967Z,18.30
2022-11-13T19:23:36.933Z,18.13
2022-11-13T19:26:05.454Z,18.13
2022-11-13T19:28:33.381Z,16.80
2022-11-13T19:31:01.320Z,19.03
2022-11-13T19:33:29.616Z,17.57
2022-11-13T19:35:57.510Z,17.53
2022-11-13T19:38:27.924Z,17.60
2022-11-13T19:40:56.106Z,16.93
2022-11-13T19:43:24.055Z,17.20
2022-11-13T19:45:51.952Z,15.00
2022-11-13T19:48:19.880Z,15.33
2022-11-13T19:50:47.784Z,14.83
2022-11-13T19:53:15.907Z,14.67
2022-11-13T19:55:54.426Z,13.87
2022-11-13T19:58:22.386Z,12.77
2022-11-13T20:00:50.327Z,14.17
2022-11-13T20:03:18.214Z,13.10
2022-11-13T20:05:46.370Z,13.17
2022-11-13T20:08:14.963Z,11.73
2022-11-13T20:10:42.856Z,11.57
2022-11-13T20:13:12.209Z,11.30
2022-11-13T20:15:40.169Z,9.67
2022-11-13T20:18:11.053Z,8.93
2022-11-13T20:20:38.945Z,9.27
2022-11-13T20:23:06.923Z,8.70
2022-11-13T20:25:34.829Z,8.70
2022-11-13T20:28:02.733Z,8.60
2022-11-13T20:30:32.191Z,8.00
2022-11-13T20:33:00.087Z,6.63
2022-11-13T20:35:27.970Z,6.87
2022-11-13T20:37:56.256Z,5.90
2022-11-13T20:40:24.153Z,5.60
2022-11-13T20:42:52.060Z,6.10
2022-11-13T20:45:20.005Z,5.43
2022-11-13T20:47:49.291Z,5.27
2022-11-13T20:50:17.367Z,5.83
2022-11-13T20:52:45.274Z,5.17
2022-11-13T20:55:13.178Z,6.03
2022-11-13T20:57:41.344Z,6.00
2022-11-13T21:00:10.837Z,6.23
2022-11-13T21:02:38.836Z,7.20
2022-11-13T21:05:08.937Z,7.23
2022-11-13T21:07:36.827Z,7.73
2022-11-13T21:10:05.067Z,7.50
2022-11-13T21:12:33.234Z,8.00
2022-11-13T21:15:01.159Z,7.33
2022-11-13T21:17:29.124Z,7.03
2022-11-13T21:19:57.894Z,7.70
2022-11-13T21:22:27.383Z,6.50
2022-11-13T21:24:55.307Z,6.50
2022-11-13T21:27:23.261Z,6.00
2022-11-13T21:29:51.173Z,5.33
2022-11-13T21:32:19.802Z,5.40
2022-11-13T21:34:47.817Z,4.37
2022-11-13T21:37:16.124Z,4.40
2022-11-13T21:39:45.431Z,3.43
2022-11-13T21:42:13.372Z,3.47
2022-11-13T21:44:41.266Z,4.03
2022-11-13T21:47:11.040Z,3.80
2022-11-13T21:49:39.054Z,3.20
2022-11-13T21:52:06.953Z,3.43
2022-11-13T21:54:34.833Z,3.17
2022-11-13T21:57:04.251Z,2.87
2022-11-13T21:59:32.194Z,3.77
2022-11-13T22:02:00.441Z,3.63
2022-11-13T22:04:28.419Z,3.30
2022-11-13T22:06:56.344Z,3.47
2022-11-13T22:09:25.329Z,3.70
2022-11-13T22:11:53.522Z,4.10
2022-11-13T22:14:22.859Z,3.80
2022-11-13T22:16:50.806Z,4.00
2022-11-13T22:19:23.960Z,3.10
2022-11-13T22:21:54.647Z,3.00
2022-11-13T22:24:22.537Z,3.53
2022-11-13T22:26:50.429Z,3.50
2022-11-13T22:29:18.615Z,4.13
2022-11-13T22:31:48.230Z,4.03
2022-11-13T22:34:16.167Z,3.30
2022-11-13T22:36:44.109Z,3.67
2022-11-13T22:39:12.138Z,3.27
2022-11-13T22:41:40.046Z,3.30
2022-11-13T22:44:09.307Z,3.67
2022-11-13T22:46:37.485Z,3.30
2022-11-13T22:49:07.091Z,3.23
2022-11-13T22:51:38.132Z,3.33
2022-11-13T22:54:07.430Z,3.40
2022-11-13T22:56:36.005Z,3.47
2022-11-13T22:59:05.273Z,3.63
2022-11-13T23:01:34.810Z,3.53
2022-11-13T23:04:03.793Z,3.30
2022-11-13T23:06:33.674Z,3.00
2022-11-13T23:09:04.618Z,3.57
2022-11-13T23:11:33.746Z,3.20
2022-11-13T23:14:02.307Z,3.20
2022-11-13T23:16:30.961Z,3.63
2022-11-13T23:18:59.631Z,3.43
2022-11-13T23:21:27.763Z,3.00
2022-11-13T23:23:57.497Z,3.73
2022-11-13T23:26:25.777Z,2.93
2022-11-13T23:28:54.122Z,3.57
2022-11-13T23:31:22.328Z,3.60
2022-11-13T23:33:50.478Z,3.50
2022-11-13T23:36:19.224Z,3.30
2022-11-13T23:38:47.181Z,3.20
2022-11-13T23:41:16.497Z,3.43
2022-11-13T23:46:32.331Z,4.30
2022-11-13T23:49:00.225Z,4.30
2022-11-13T23:51:28.104Z,3.80
2022-11-13T23:53:56.095Z,3.60
2022-11-13T23:56:25.471Z,3.97
2022-11-13T23:58:53.372Z,3.53
